Time;durP1;ratioP1;P1;durP2;ratioP2;P2;SDS_P1;SDS_P2;PMS_P1;PMS_P2;Temp;Humidity;BMP_temperature;BMP_pressure;BME280_temperature;BME280_humidity;BME280_pressure;Samples;Min_cycle;Max_cycle;Signal;HPM_P1;HPM_P2
2021/05/25 00:02:00;;;;;;;5.03;3.15;;;9.90;90.90;;;;;;5060967;28;20047;-61
2021/05/25 00:04:26;;;;;;;5.93;2.97;;;11.70;91.40;;;;;;5057631;28;20032;-62
2021/05/25 00:06:52;;;;;;;5.25;2.78;;;10.20;91.10;;;;;;5051025;28;20117;-62
2021/05/25 00:09:18;;;;;;;4.22;2.60;;;10.30;91.30;;;;;;5043231;28;20037;-62
2021/05/25 00:11:44;;;;;;;5.25;3.13;;;10.20;91.30;;;;;;5053239;28;20379;-62
2021/05/25 00:14:10;;;;;;;5.72;3.30;;;10.20;91.30;;;;;;5050791;28;20129;-63
2021/05/25 00:16:38;;;;;;;3.80;2.95;;;8.80;91.60;;;;;;5046256;28;20083;-61
2021/05/25 00:19:04;;;;;;;4.00;3.00;;;9.50;91.70;;;;;;5057250;28;20136;-61
2021/05/25 00:21:30;;;;;;;5.03;3.17;;;9.90;91.90;;;;;;5044964;28;20037;-61
2021/05/25 00:23:56;;;;;;;4.40;3.13;;;9.90;92.00;;;;;;5048848;28;20048;-61
2021/05/25 00:26:22;;;;;;;4.18;3.30;;;;;;;;;;5058776;28;20032;-62
2021/05/25 00:32:49;;;;;;;4.70;3.50;;;9.50;92.30;;;;;;4966513;28;20519;-62
2021/05/25 00:35:16;;;;;;;6.35;3.63;;;8.50;92.20;;;;;;5045156;28;20107;-62
2021/05/25 00:37:43;;;;;;;5.22;3.67;;;11.10;92.70;;;;;;5048220;28;20048;-62
2021/05/25 00:40:11;;;;;;;5.15;3.72;;;9.80;92.50;;;;;;5062204;28;20079;-60
2021/05/25 00:42:37;;;;;;;6.82;4.10;;;9.70;92.60;;;;;;5048396;28;20043;-61
2021/05/25 00:45:05;;;;;;;5.10;3.70;;;9.80;92.70;;;;;;5045413;28;20041;-60
2021/05/25 00:47:33;;;;;;;5.10;3.75;;;9.80;92.60;;;;;;5049219;28;20075;-60
2021/05/25 00:50:12;;;;;;;6.75;3.92;;;8.90;92.60;;;;;;5046172;28;20052;-61
2021/05/25 00:52:42;;;;;;;5.75;3.90;;;9.70;92.70;;;;;;5054931;28;20151;-60
2021/05/25 00:55:12;;;;;;;5.20;4.25;;;9.10;92.90;;;;;;5050725;28;20052;-61
2021/05/25 00:57:38;;;;;;;8.20;4.80;;;10.40;93.40;;;;;;5048441;28;20505;-61
2021/05/25 01:00:06;;;;;;;6.40;4.70;;;9.60;93.00;;;;;;5047533;28;20033;-61
2021/05/25 01:02:34;;;;;;;5.95;4.60;;;9.60;93.10;;;;;;5046591;28;20692;-61
2021/05/25 01:05:00;;;;;;;6.10;4.40;;;9.50;93.10;;;;;;5046551;28;20482;-61
2021/05/25 01:07:26;;;;;;;5.75;4.03;;;9.70;93.10;;;;;;5048051;28;20483;-61
2021/05/25 01:09:54;;;;;;;5.13;4.03;;;9.70;93.00;;;;;;5048369;28;20045;-62
2021/05/25 01:12:21;;;;;;;5.88;4.35;;;8.30;93.00;;;;;;5043412;28;20033;-61
2021/05/25 01:14:52;;;;;;;6.43;3.90;;;10.20;93.50;;;;;;5049539;28;20490;-61
2021/05/25 01:17:19;;;;;;;5.43;4.25;;;9.80;93.20;;;;;;5050131;28;20052;-61
2021/05/25 01:19:45;;;;;;;7.10;4.28;;;9.70;93.10;;;;;;5055236;28;20033;-61
2021/05/25 01:22:11;;;;;;;6.60;4.35;;;9.10;93.10;;;;;;5057526;28;20080;-61
2021/05/25 01:24:37;;;;;;;6.22;4.55;;;8.60;93.00;;;;;;5049088;28;20044;-61
2021/05/25 01:27:06;;;;;;;9.68;4.60;;;9.50;93.20;;;;;;5047233;28;20060;-61
2021/05/25 01:29:38;;;;;;;7.22;4.90;;;9.50;93.50;;;;;;5057289;28;20062;-61
2021/05/25 01:32:04;;;;;;;7.45;4.50;;;8.90;93.30;;;;;;5048541;28;20432;-61
2021/05/25 01:34:30;;;;;;;8.45;4.80;;;9.40;93.40;;;;;;5048135;28;20068;-62
2021/05/25 01:36:56;;;;;;;7.38;5.30;;;9.30;93.50;;;;;;5053770;28;20512;-61
2021/05/25 01:39:22;;;;;;;7.97;4.97;;;9.60;93.50;;;;;;5048328;28;20037;-61
2021/05/25 01:41:55;;;;;;;9.13;5.22;;;9.30;93.50;;;;;;5025041;28;20139;-62
2021/05/25 01:44:21;;;;;;;7.53;5.03;;;8.80;93.70;;;;;;5049178;28;20037;-61
2021/05/25 01:46:48;;;;;;;8.40;6.00;;;7.80;93.80;;;;;;5048080;28;20037;-61
2021/05/25 01:49:18;;;;;;;8.45;5.93;;;8.20;93.80;;;;;;5047782;28;20083;-61
2021/05/25 01:51:48;;;;;;;;;;;9.40;94.00;;;;;;5053634;28;20044;-61
2021/05/25 01:54:14;;;;;;;8.18;6.15;;;9.40;94.20;;;;;;5049762;28;20278;-62
2021/05/25 01:56:40;;;;;;;8.82;6.13;;;8.70;94.00;;;;;;5048311;28;20037;-61
2021/05/25 01:59:06;;;;;;;8.60;6.00;;;;;;;;;;5054398;28;20117;-61
2021/05/25 02:01:33;;;;;;;10.27;6.60;;;9.20;94.20;;;;;;5048807;28;20498;-61
2021/05/25 02:03:59;;;;;;;10.18;6.50;;;9.00;94.00;;;;;;5042599;28;20047;-61
2021/05/25 02:06:25;;;;;;;10.15;6.90;;;;;;;;;;5048550;28;20032;-61
2021/05/25 02:08:51;;;;;;;14.00;6.45;;;9.50;93.90;;;;;;5078577;28;20041;-61
2021/05/25 02:11:18;;;;;;;11.35;6.78;;;9.40;94.10;;;;;;5050020;28;20044;-61
2021/05/25 02:13:43;;;;;;;11.15;8.18;;;9.50;94.10;;;;;;5055602;28;20120;-61
2021/05/25 02:16:15;;;;;;;10.35;7.18;;;8.10;93.80;;;;;;5053198;28;20119;-61
2021/05/25 02:18:44;;;;;;;11.30;7.63;;;9.40;94.30;;;;;;5048557;28;20053;-62
2021/05/25 02:21:13;;;;;;;11.70;7.50;;;9.40;94.20;;;;;;5045148;28;20032;-61
2021/05/25 02:23:39;;;;;;;11.83;7.63;;;9.30;94.10;;;;;;5051562;28;20087;-61
2021/05/25 02:26:06;;;;;;;12.15;7.72;;;9.40;94.10;;;;;;5081064;28;20033;-61
2021/05/25 02:28:32;;;;;;;12.60;7.60;;;9.30;94.30;;;;;;5048594;28;20040;-62
2021/05/25 02:30:58;;;;;;;13.68;8.65;;;9.30;94.30;;;;;;5032985;28;20086;-61
2021/05/25 02:33:25;;;;;;;13.43;8.90;;;8.60;94.50;;;;;;5045106;28;20029;-61
2021/05/25 02:35:53;;;;;;;13.18;8.25;;;8.80;94.50;;;;;;5048459;28;20086;-61
2021/05/25 02:38:20;;;;;;;12.80;7.85;;;9.40;94.50;;;;;;5049229;28;20072;-61
2021/05/25 02:40:49;;;;;;;16.95;9.32;;;9.40;94.40;;;;;;5056863;28;20041;-60
2021/05/25 02:43:18;;;;;;;14.57;8.43;;;9.80;94.90;;;;;;5039081;28;20399;-61
2021/05/25 02:45:44;;;;;;;12.38;7.28;;;8.90;94.30;;;;;;5057038;28;20082;-61
2021/05/25 02:48:10;;;;;;;14.27;8.23;;;9.30;94.30;;;;;;5054394;28;20040;-60
2021/05/25 02:50:37;;;;;;;16.77;11.02;;;10.90;94.90;;;;;;5055562;28;20546;-61
2021/05/25 02:53:04;;;;;;;14.80;8.32;;;9.80;94.50;;;;;;5053513;28;20051;-61
2021/05/25 02:55:32;;;;;;;18.08;9.27;;;9.40;94.60;;;;;;5059232;28;20444;-61
2021/05/25 02:58:00;;;;;;;16.05;9.82;;;7.90;94.10;;;;;;5051766;28;20072;-61
2021/05/25 03:00:29;;;;;;;15.07;9.23;;;9.40;94.40;;;;;;5084930;28;20078;-62
2021/05/25 03:02:56;;;;;;;16.77;9.32;;;9.20;94.40;;;;;;5051327;28;20048;-61
2021/05/25 03:05:23;;;;;;;14.77;7.55;;;9.40;94.30;;;;;;5052201;28;20111;-61
2021/05/25 03:07:50;;;;;;;16.13;9.68;;;9.20;94.30;;;;;;5052432;28;20057;-61
2021/05/25 03:10:18;;;;;;;17.73;10.15;;;9.80;94.50;;;;;;5051988;28;20037;-61
2021/05/25 03:12:45;;;;;;;17.35;10.18;;;10.00;94.50;;;;;;5050404;28;20665;-61
2021/05/25 03:15:14;;;;;;;16.55;10.65;;;7.60;94.10;;;;;;5054034;28;20592;-61
2021/05/25 03:17:40;;;;;;;20.58;11.18;;;10.60;94.80;;;;;;5052107;28;20040;-61
2021/05/25 03:20:08;;;;;;;18.90;10.60;;;9.40;94.50;;;;;;5054108;28;20072;-61
2021/05/25 03:22:34;;;;;;;18.38;10.07;;;8.80;94.50;;;;;;5055284;28;20115;-61
2021/05/25 03:25:00;;;;;;;20.55;10.52;;;8.30;94.40;;;;;;5051611;28;20565;-61
2021/05/25 03:27:26;;;;;;;17.30;9.50;;;;;;;;;;5052976;28;20458;-61
2021/05/25 03:29:52;;;;;;;19.55;11.70;;;9.50;94.50;;;;;;5051041;28;20174;-61
2021/05/25 03:32:18;;;;;;;21.65;11.18;;;;;;;;;;5055177;28;20037;-61
2021/05/25 03:34:44;;;;;;;20.23;11.18;;;10.90;94.80;;;;;;5051797;28;20435;-61
2021/05/25 03:37:10;;;;;;;19.67;11.05;;;9.30;94.50;;;;;;5056004;28;20063;-61
2021/05/25 03:39:36;;;;;;;17.83;11.48;;;8.20;93.80;;;;;;5051865;28;20064;-60
2021/05/25 03:42:03;;;;;;;16.55;10.77;;;10.00;94.30;;;;;;5057525;28;20041;-61
2021/05/25 03:44:28;;;;;;;18.75;10.27;;;9.40;94.20;;;;;;5046864;28;20055;-61
2021/05/25 03:46:54;;;;;;;18.48;10.20;;;9.30;94.00;;;;;;5053016;28;20094;-60
2021/05/25 03:49:20;;;;;;;14.55;9.13;;;;;;;;;;5047659;28;20410;-61
2021/05/25 03:51:46;;;;;;;13.00;7.95;;;9.30;93.40;;;;;;5049194;28;20033;-60
2021/05/25 03:54:26;;;;;;;14.80;9.30;;;9.30;93.50;;;;;;5050431;28;20452;-61
2021/05/25 03:56:59;;;;;;;18.80;9.45;;;10.30;93.70;;;;;;5046331;28;20045;-61
2021/05/25 03:59:24;;;;;;;16.63;9.77;;;9.20;93.60;;;;;;5051729;28;20124;-61
2021/05/25 04:01:52;;;;;;;15.00;9.65;;;9.40;93.60;;;;;;5054890;28;20150;-61
2021/05/25 04:04:18;;;;;;;9.57;5.95;;;8.20;92.80;;;;;;5052687;28;20048;-61
2021/05/25 04:06:44;;;;;;;6.18;3.22;;;8.60;92.60;;;;;;5059826;28;20033;-60
2021/05/25 04:09:09;;;;;;;6.65;2.83;;;9.20;92.60;;;;;;5053057;28;20188;-61
2021/05/25 04:11:35;;;;;;;4.28;2.85;;;9.10;92.30;;;;;;5049530;28;20054;-60
2021/05/25 04:14:03;;;;;;;4.18;2.78;;;8.40;92.10;;;;;;5079699;28;20103;-60
2021/05/25 04:16:29;;;;;;;6.28;2.75;;;9.00;92.20;;;;;;5052264;28;20163;-60
2021/05/25 04:18:55;;;;;;;4.32;2.92;;;;;;;;;;5052111;28;20485;-60
2021/05/25 04:21:21;;;;;;;5.57;2.58;;;8.30;91.90;;;;;;5059569;28;20051;-60
2021/05/25 04:23:47;;;;;;;6.35;2.03;;;8.70;91.60;;;;;;5061404;28;20043;-61
2021/05/25 04:26:13;;;;;;;6.03;2.40;;;8.90;91.60;;;;;;5081847;28;20113;-60
2021/05/25 04:28:39;;;;;;;4.20;2.03;;;8.00;91.60;;;;;;5048104;28;20077;-60
2021/05/25 04:31:05;;;;;;;4.97;2.50;;;9.20;92.10;;;;;;5052475;28;20068;-60
2021/05/25 04:33:30;;;;;;;5.82;2.35;;;8.40;92.20;;;;;;5047030;28;20075;-60
2021/05/25 04:35:56;;;;;;;5.85;2.38;;;8.50;92.40;;;;;;5040090;28;20062;-61
2021/05/25 04:38:22;;;;;;;4.03;2.33;;;8.60;92.70;;;;;;5057037;28;20544;-60
2021/05/25 04:40:48;;;;;;;4.40;2.53;;;8.60;92.80;;;;;;5051610;28;20625;-60
2021/05/25 04:43:15;;;;;;;6.90;2.63;;;8.80;93.00;;;;;;5032186;28;20067;-60
2021/05/25 04:45:43;;;;;;;5.93;2.85;;;8.60;93.30;;;;;;5044184;28;20136;-60
2021/05/25 04:48:10;;;;;;;7.32;2.97;;;8.70;93.30;;;;;;5078929;28;20161;-60
2021/05/25 04:50:37;;;;;;;6.63;3.30;;;8.70;93.70;;;;;;5053482;28;20043;-60
2021/05/25 04:53:03;;;;;;;6.47;3.20;;;8.70;93.60;;;;;;5057043;28;20060;-60
2021/05/25 04:55:29;;;;;;;5.82;3.05;;;7.60;93.30;;;;;;5048729;28;20098;-60
2021/05/25 04:57:55;;;;;;;5.20;2.78;;;8.60;93.50;;;;;;5063716;28;20395;-60
2021/05/25 05:00:27;;;;;;;2.30;1.92;;;8.60;93.30;;;;;;5047739;28;20029;-60
2021/05/25 05:02:53;;;;;;;6.80;3.13;;;8.80;92.90;;;;;;5064800;28;20516;-60
2021/05/25 05:05:20;;;;;;;3.20;2.22;;;8.70;93.00;;;;;;5081852;28;20075;-60
2021/05/25 05:07:47;;;;;;;4.45;2.20;;;8.20;92.80;;;;;;5049049;28;20045;-60
2021/05/25 05:10:14;;;;;;;2.55;1.83;;;8.40;92.90;;;;;;5052356;28;20037;-60
2021/05/25 05:12:40;;;;;;;6.72;2.78;;;8.00;92.90;;;;;;5056917;28;20036;-60
2021/05/25 05:15:07;;;;;;;4.32;2.70;;;8.10;92.90;;;;;;5049396;28;20048;-60
2021/05/25 05:17:33;;;;;;;4.22;2.67;;;8.40;93.00;;;;;;5047911;28;20069;-60
2021/05/25 05:19:59;;;;;;;4.50;2.90;;;9.40;93.30;;;;;;5044735;28;20033;-61
2021/05/25 05:22:26;;;;;;;6.72;2.80;;;8.70;93.00;;;;;;5049391;28;20039;-61
2021/05/25 05:24:52;;;;;;;4.20;2.80;;;8.60;93.10;;;;;;5049927;28;20462;-61
2021/05/25 05:27:18;;;;;;;3.70;2.60;;;8.60;93.00;;;;;;5048379;28;20057;-61
2021/05/25 05:29:44;;;;;;;5.28;3.17;;;8.10;93.00;;;;;;5045917;28;20478;-61
2021/05/25 05:32:11;;;;;;;7.38;3.30;;;8.40;93.10;;;;;;5044775;28;20490;-61
2021/05/25 05:34:37;;;;;;;5.95;2.72;;;8.80;93.00;;;;;;5047681;28;20032;-61
2021/05/25 05:37:03;;;;;;;5.57;2.80;;;9.20;93.10;;;;;;5049018;28;20482;-61
2021/05/25 05:39:29;;;;;;;4.40;2.50;;;8.20;93.10;;;;;;5047267;28;20044;-61
2021/05/25 05:41:55;;;;;;;3.40;2.47;;;9.00;93.00;;;;;;5049444;28;20044;-61
2021/05/25 05:44:22;;;;;;;5.45;2.70;;;9.00;92.50;;;;;;5049104;28;20072;-61
2021/05/25 05:46:48;;;;;;;6.65;2.55;;;9.10;92.70;;;;;;5047616;28;20524;-61
2021/05/25 05:49:14;;;;;;;6.57;2.80;;;8.60;92.40;;;;;;5048077;28;20100;-61
2021/05/25 05:51:40;;;;;;;5.75;2.63;;;7.20;92.30;;;;;;5054623;28;20517;-61
2021/05/25 05:54:06;;;;;;;7.47;2.90;;;8.90;92.20;;;;;;5050397;28;20068;-61
2021/05/25 05:56:31;;;;;;;5.00;2.92;;;8.50;92.20;;;;;;5048710;28;20479;-61
2021/05/25 05:58:57;;;;;;;5.28;3.08;;;9.20;92.40;;;;;;5050385;28;20138;-61
2021/05/25 06:01:23;;;;;;;6.05;3.55;;;8.50;92.40;;;;;;5051341;28;20053;-60
2021/05/25 06:03:49;;;;;;;3.25;2.33;;;8.90;92.70;;;;;;5042881;28;20482;-61
2021/05/25 06:06:15;;;;;;;5.00;2.50;;;9.00;92.30;;;;;;5049653;28;20842;-61
2021/05/25 06:08:42;;;;;;;5.45;2.90;;;9.00;92.60;;;;;;5049212;28;20087;-61
2021/05/25 06:11:08;;;;;;;5.22;2.67;;;8.40;92.50;;;;;;5048528;28;20082;-61
2021/05/25 06:13:35;;;;;;;5.80;2.88;;;;;;;;;;5044025;28;20094;-60
2021/05/25 06:16:03;;;;;;;6.78;2.72;;;8.90;92.50;;;;;;5048452;28;20065;-61
2021/05/25 06:18:30;;;;;;;5.27;2.57;;;9.40;92.50;;;;;;5048887;28;20106;-61
2021/05/25 06:20:56;;;;;;;5.53;2.92;;;9.20;92.50;;;;;;5076833;28;20033;-60
2021/05/25 06:23:22;;;;;;;5.53;2.88;;;9.60;92.20;;;;;;5050461;28;20039;-61
2021/05/25 06:25:48;;;;;;;6.03;2.88;;;9.30;92.30;;;;;;5052254;28;20045;-60
2021/05/25 06:28:14;;;;;;;5.40;3.00;;;9.00;92.20;;;;;;5046536;28;20075;-61
2021/05/25 06:30:41;;;;;;;5.15;3.08;;;9.00;92.20;;;;;;5050093;28;20033;-61
2021/05/25 06:33:07;;;;;;;5.50;3.28;;;9.20;92.50;;;;;;5048593;28;20549;-61
2021/05/25 06:35:34;;;;;;;5.70;2.92;;;9.20;92.50;;;;;;5051196;28;20029;-61
2021/05/25 06:38:00;;;;;;;8.35;3.65;;;10.00;91.90;;;;;;5036345;28;20056;-61
2021/05/25 06:40:26;;;;;;;4.57;3.10;;;9.00;92.10;;;;;;5050515;28;20397;-61
2021/05/25 06:42:52;;;;;;;5.53;2.92;;;9.00;92.30;;;;;;5058773;28;20037;-61
2021/05/25 06:45:19;;;;;;;3.53;2.53;;;9.50;92.30;;;;;;5057540;28;20041;-61
2021/05/25 06:47:45;;;;;;;3.50;2.58;;;8.10;91.80;;;;;;5047853;28;20041;-61
2021/05/25 06:50:13;;;;;;;3.90;2.05;;;9.40;91.90;;;;;;5048204;28;20401;-61
2021/05/25 06:52:40;;;;;;;4.43;2.60;;;9.50;91.70;;;;;;5059974;28;20056;-62
2021/05/25 06:55:06;;;;;;;4.63;3.00;;;9.10;92.10;;;;;;5048635;28;20094;-60
2021/05/25 06:57:32;;;;;;;3.83;2.40;;;8.00;92.20;;;;;;5047187;28;20040;-60
2021/05/25 06:59:58;;;;;;;5.95;2.22;;;9.10;91.70;;;;;;5049534;28;20041;-60
2021/05/25 07:02:24;;;;;;;3.78;2.30;;;9.20;91.90;;;;;;5047764;28;20520;-60
2021/05/25 07:04:55;;;;;;;4.00;2.15;;;9.00;92.00;;;;;;5046931;28;20040;-60
2021/05/25 07:07:22;;;;;;;4.25;2.33;;;9.30;92.00;;;;;;5052840;28;20045;-60
2021/05/25 07:09:48;;;;;;;4.82;2.47;;;10.10;92.30;;;;;;5048129;28;20040;-60
2021/05/25 07:12:14;;;;;;;4.57;2.75;;;10.20;92.50;;;;;;5047849;28;20049;-60
2021/05/25 07:14:41;;;;;;;4.68;2.95;;;10.00;92.40;;;;;;5046512;28;20045;-60
2021/05/25 07:17:07;;;;;;;4.55;2.90;;;8.80;92.20;;;;;;5048621;28;20043;-60
2021/05/25 07:19:33;;;;;;;4.32;2.75;;;8.50;92.70;;;;;;5048847;28;20083;-60
2021/05/25 07:22:00;;;;;;;3.95;2.80;;;9.60;93.20;;;;;;5052156;28;20041;-60
2021/05/25 07:24:26;;;;;;;5.38;2.88;;;9.40;92.90;;;;;;5079165;28;20045;-61
2021/05/25 07:26:52;;;;;;;4.13;3.10;;;9.50;93.00;;;;;;5046174;28;20090;-60
2021/05/25 07:29:18;;;;;;;5.68;2.92;;;9.70;93.00;;;;;;5046394;28;20689;-60
2021/05/25 07:31:44;;;;;;;7.45;3.50;;;9.60;92.90;;;;;;5035589;28;20127;-60
2021/05/25 07:34:10;;;;;;;5.07;3.05;;;9.60;92.30;;;;;;5084045;28;20041;-60
2021/05/25 07:36:36;;;;;;;6.47;3.40;;;9.60;92.20;;;;;;5051220;28;20179;-60
2021/05/25 07:39:03;;;;;;;6.45;3.50;;;9.00;92.60;;;;;;5083327;28;20045;-60
2021/05/25 07:41:29;;;;;;;4.90;3.13;;;9.70;92.60;;;;;;5084788;28;20040;-60
2021/05/25 07:43:55;;;;;;;5.47;3.05;;;10.00;91.20;;;;;;5057849;28;20032;-60
2021/05/25 07:46:24;;;;;;;5.75;2.70;;;9.70;90.90;;;;;;5049230;28;20049;-60
2021/05/25 07:48:51;;;;;;;7.73;2.80;;;9.20;90.10;;;;;;5050722;28;20446;-59
2021/05/25 07:51:17;;;;;;;4.43;3.00;;;9.60;90.70;;;;;;5058277;28;20064;-60
2021/05/25 07:53:43;;;;;;;5.25;3.42;;;;;;;;;;5059512;28;20036;-60
2021/05/25 07:56:09;;;;;;;6.00;4.45;;;9.50;90.80;;;;;;5049800;28;20087;-60
2021/05/25 07:58:35;;;;;;;9.43;4.45;;;9.30;91.20;;;;;;5077789;28;20045;-60
2021/05/25 08:01:01;;;;;;;8.90;5.78;;;9.70;91.70;;;;;;5062779;28;20045;-60
2021/05/25 08:03:27;;;;;;;12.70;7.75;;;9.70;91.90;;;;;;5056391;28;20044;-61
2021/05/25 08:05:54;;;;;;;16.90;9.50;;;9.70;91.90;;;;;;5051461;28;20469;-61
2021/05/25 08:08:19;;;;;;;13.07;8.68;;;9.30;91.80;;;;;;5049752;28;20106;-59
2021/05/25 08:10:45;;;;;;;17.55;9.93;;;10.30;92.20;;;;;;5051643;28;20032;-61
2021/05/25 08:13:11;;;;;;;17.98;10.05;;;8.80;91.60;;;;;;5049296;28;20095;-62
2021/05/25 08:15:40;;;;;;;14.30;9.15;;;9.90;91.50;;;;;;5080475;28;20106;-61
2021/05/25 08:20:36;;;;;;;14.95;8.75;;;;;;;;;;5048953;28;20094;-61
2021/05/25 08:23:03;;;;;;;14.27;9.52;;;9.10;91.10;;;;;;5060265;28;20106;-60
2021/05/25 08:25:31;;;;;;;12.52;7.90;;;9.90;91.00;;;;;;5049659;28;20494;-61
2021/05/25 08:28:00;;;;;;;15.80;9.98;;;11.10;91.80;;;;;;5050048;28;20433;-61
2021/05/25 08:30:28;;;;;;;15.10;9.10;;;10.10;91.50;;;;;;5052302;28;20548;-61
2021/05/25 08:32:55;;;;;;;41.80;15.27;;;8.50;90.70;;;;;;5054330;28;20041;-61
2021/05/25 08:35:23;;;;;;;15.70;10.07;;;10.10;90.90;;;;;;5049671;28;20091;-60
2021/05/25 08:37:55;;;;;;;18.48;11.32;;;10.00;90.80;;;;;;5048801;28;20037;-61
2021/05/25 08:40:21;;;;;;;16.58;9.63;;;9.80;90.60;;;;;;5046583;28;20119;-61
2021/05/25 08:42:47;;;;;;;16.58;10.75;;;10.20;90.70;;;;;;5051868;28;20729;-61
2021/05/25 08:45:14;;;;;;;12.07;8.43;;;11.60;91.30;;;;;;5049664;28;20095;-60
2021/05/25 08:47:41;;;;;;;17.38;11.05;;;11.30;90.70;;;;;;5044731;28;20418;-61
2021/05/25 08:50:11;;;;;;;19.58;13.40;;;10.20;90.60;;;;;;5057728;28;20029;-60
2021/05/25 08:52:37;;;;;;;27.13;15.18;;;10.00;91.30;;;;;;5053663;28;20029;-61
2021/05/25 08:55:05;;;;;;;23.10;14.25;;;10.90;91.50;;;;;;5049342;28;20537;-61
2021/05/25 08:57:31;;;;;;;20.85;14.23;;;10.30;91.20;;;;;;5045888;28;20486;-60
2021/05/25 08:59:57;;;;;;;19.77;12.40;;;10.70;91.50;;;;;;5050546;28;20064;-61
2021/05/25 09:02:23;;;;;;;27.58;16.55;;;10.90;91.70;;;;;;5045999;28;20542;-61
2021/05/25 09:04:59;;;;;;;27.00;16.42;;;10.80;92.50;;;;;;5054337;28;20090;-60
2021/05/25 09:07:47;;;;;;;21.25;14.60;;;10.90;89.70;;;;;;5042644;28;20085;-61
2021/05/25 09:10:22;;;;;;;25.02;14.25;;;11.30;89.90;;;;;;5049963;28;20085;-62
2021/05/25 09:12:50;;;;;;;18.88;11.07;;;11.60;90.30;;;;;;5047870;28;20097;-62
2021/05/25 09:15:40;;;;;;;16.50;10.88;;;13.30;90.00;;;;;;5051536;28;20588;-61
2021/05/25 09:18:12;;;;;;;32.20;11.35;;;12.40;85.90;;;;;;5044928;28;20213;-62
2021/05/25 09:20:48;;;;;;;11.07;7.18;;;12.00;85.20;;;;;;5048854;28;20295;-61
2021/05/25 09:23:20;;;;;;;14.50;8.98;;;12.80;83.40;;;;;;5051484;28;20550;-61
2021/05/25 09:26:04;;;;;;;7.55;5.72;;;12.00;80.80;;;;;;5044333;28;20120;-62
2021/05/25 09:28:31;;;;;;;9.98;7.18;;;12.00;82.70;;;;;;5047280;28;20074;-61
2021/05/25 09:30:57;;;;;;;8.32;5.40;;;13.40;81.80;;;;;;5054853;28;20040;-60
2021/05/25 09:33:23;;;;;;;9.23;6.55;;;12.30;80.60;;;;;;5048701;28;20119;-60
2021/05/25 09:35:52;;;;;;;10.07;5.85;;;12.20;80.20;;;;;;5046479;28;20038;-60
2021/05/25 09:38:26;;;;;;;9.27;5.10;;;13.30;83.00;;;;;;5046640;28;20041;-60
2021/05/25 09:40:53;;;;;;;7.93;5.35;;;12.10;82.20;;;;;;5048354;28;20488;-60
2021/05/25 09:43:24;;;;;;;9.65;5.55;;;11.40;82.70;;;;;;5050292;28;20047;-61
2021/05/25 09:46:00;;;;;;;6.22;4.93;;;12.40;82.70;;;;;;5049133;28;20041;-61
2021/05/25 09:48:51;;;;;;;6.82;5.18;;;12.40;78.00;;;;;;5048746;28;20048;-60
2021/05/25 09:51:26;;;;;;;7.40;5.20;;;12.50;78.50;;;;;;5044326;28;20048;-61
2021/05/25 09:53:52;;;;;;;6.97;4.90;;;;;;;;;;5048121;28;20051;-62
2021/05/25 09:56:32;;;;;;;5.75;3.88;;;12.30;79.50;;;;;;5046537;28;20520;-60
2021/05/25 09:58:59;;;;;;;;;;;12.40;80.70;;;;;;5050221;28;20037;-61
2021/05/25 10:01:36;;;;;;;1.83;1.52;;;13.10;73.20;;;;;;5047447;28;19917;-61
2021/05/25 10:04:15;;;;;;;4.20;3.05;;;12.80;77.40;;;;;;5058877;28;20395;-60
2021/05/25 10:06:47;;;;;;;5.43;2.67;;;11.50;80.90;;;;;;5046168;28;20032;-61
2021/05/25 10:09:13;;;;;;;4.20;2.33;;;12.20;81.30;;;;;;5051564;28;20037;-60
2021/05/25 10:11:43;;;;;;;2.45;2.00;;;10.80;82.80;;;;;;5047912;28;20138;-60
2021/05/25 10:14:10;;;;;;;5.75;2.63;;;11.50;82.70;;;;;;5054206;28;20029;-60
2021/05/25 10:16:39;;;;;;;3.28;2.15;;;11.30;82.70;;;;;;5047004;28;20122;-60
2021/05/25 10:21:35;;;;;;;2.38;1.98;;;10.70;83.40;;;;;;5051701;28;20536;-61
2021/05/25 10:24:01;;;;;;;3.72;2.17;;;11.00;83.40;;;;;;5055012;28;20036;-61
2021/05/25 10:26:28;;;;;;;3.30;2.17;;;10.90;83.50;;;;;;5052381;28;20426;-61
2021/05/25 10:28:56;;;;;;;2.80;1.95;;;10.80;85.00;;;;;;5048890;28;20131;-61
2021/05/25 10:31:37;;;;;;;4.55;2.38;;;10.50;85.70;;;;;;5047166;28;20482;-61
2021/05/25 10:34:12;;;;;;;3.40;2.03;;;10.30;85.50;;;;;;5048182;28;20037;-61
2021/05/25 10:36:48;;;;;;;3.95;2.25;;;10.30;85.40;;;;;;5053423;28;20064;-61
2021/05/25 10:39:36;;;;;;;3.65;2.30;;;9.60;85.50;;;;;;5046932;28;20114;-62
2021/05/25 10:42:14;;;;;;;3.03;2.20;;;10.30;84.10;;;;;;5042377;28;20410;-61
2021/05/25 10:45:00;;;;;;;3.13;2.20;;;11.40;86.00;;;;;;5047528;28;20060;-61
2021/05/25 10:47:36;;;;;;;3.65;2.17;;;8.60;84.20;;;;;;5052191;28;20036;-61
2021/05/25 10:53:05;;;;;;;5.23;2.33;;;9.50;87.30;;;;;;5055713;28;20041;-61
2021/05/25 10:55:39;;;;;;;4.20;2.05;;;10.50;87.40;;;;;;5035621;28;20025;-62
2021/05/25 10:58:17;;;;;;;7.55;2.55;;;10.20;88.40;;;;;;5047748;28;20041;-61
2021/05/25 11:00:43;;;;;;;4.47;2.60;;;;;;;;;;5046486;28;20029;-62
2021/05/25 11:03:12;;;;;;;4.88;2.63;;;9.50;89.20;;;;;;5049536;28;20041;-61
2021/05/25 11:05:41;;;;;;;3.33;2.40;;;10.40;89.20;;;;;;5048494;28;20095;-61
2021/05/25 11:08:13;;;;;;;3.78;2.60;;;10.40;90.00;;;;;;5050942;28;20449;-61
2021/05/25 11:10:46;;;;;;;5.95;2.53;;;9.30;87.90;;;;;;5052738;28;20450;-61
2021/05/25 11:13:15;;;;;;;4.03;2.30;;;10.50;88.50;;;;;;5056015;28;20398;-62
2021/05/25 11:16:05;;;;;;;5.03;2.50;;;10.60;88.80;;;;;;5059641;28;20129;-61
2021/05/25 11:18:44;;;;;;;4.22;2.30;;;10.50;88.90;;;;;;5055680;28;20052;-61
2021/05/25 11:21:43;;;;;;;4.05;2.63;;;10.60;89.00;;;;;;5047805;28;20556;-60
2021/05/25 11:24:34;;;;;;;3.53;2.38;;;11.40;90.00;;;;;;5052194;28;20060;-59
2021/05/25 11:27:30;;;;;;;3.78;2.40;;;10.30;88.60;;;;;;5050778;28;20035;-62
2021/05/25 11:29:59;;;;;;;3.28;2.10;;;10.70;87.80;;;;;;5051714;28;20405;-60
2021/05/25 11:32:30;;;;;;;2.72;2.20;;;10.80;87.50;;;;;;5060119;28;20127;-61
2021/05/25 11:35:06;;;;;;;3.88;2.40;;;10.70;87.50;;;;;;5067901;28;20040;-60
2021/05/25 11:37:37;;;;;;;4.75;2.72;;;10.70;86.30;;;;;;5053473;28;20037;-60
2021/05/25 11:40:07;;;;;;;5.18;2.65;;;11.50;87.10;;;;;;5055909;28;20145;-60
2021/05/25 11:42:33;;;;;;;4.25;2.35;;;10.80;87.10;;;;;;5044215;28;20082;-61
2021/05/25 11:44:59;;;;;;;4.53;2.38;;;11.30;88.10;;;;;;5067439;28;20032;-60
2021/05/25 11:47:25;;;;;;;4.00;2.15;;;10.60;87.50;;;;;;5063215;28;20060;-60
2021/05/25 11:49:52;;;;;;;3.55;2.42;;;10.00;87.30;;;;;;5051565;28;20443;-61
2021/05/25 11:52:26;;;;;;;3.05;2.30;;;10.80;87.40;;;;;;5058510;28;20115;-60
2021/05/25 11:55:13;;;;;;;3.50;2.30;;;10.70;87.00;;;;;;5049966;28;20041;-61
2021/05/25 11:57:47;;;;;;;3.25;2.17;;;10.70;87.90;;;;;;5053644;28;20028;-61
2021/05/25 12:00:25;;;;;;;3.85;2.20;;;10.60;89.00;;;;;;5057489;28;20090;-61
2021/05/25 12:02:53;;;;;;;3.55;2.50;;;9.90;89.20;;;;;;5049730;28;20042;-61
2021/05/25 12:05:20;;;;;;;3.63;2.35;;;11.40;89.60;;;;;;5056818;28;20036;-61
2021/05/25 12:07:50;;;;;;;3.50;2.28;;;11.10;89.40;;;;;;5043092;28;20046;-61
2021/05/25 12:10:18;;;;;;;3.50;2.63;;;10.60;89.10;;;;;;5049893;28;20040;-61
2021/05/25 12:12:46;;;;;;;5.45;2.60;;;10.60;89.90;;;;;;5048575;28;20516;-61
2021/05/25 12:15:31;;;;;;;3.47;2.40;;;10.70;90.10;;;;;;5053932;28;20071;-61
2021/05/25 12:17:59;;;;;;;5.50;2.97;;;10.70;89.20;;;;;;5049980;28;20123;-61
2021/05/25 12:20:40;;;;;;;3.75;2.40;;;9.70;88.20;;;;;;5050842;28;20040;-61
2021/05/25 12:23:10;;;;;;;4.05;2.40;;;10.60;86.40;;;;;;5043951;28;20041;-61
2021/05/25 12:25:36;;;;;;;3.40;2.20;;;10.90;86.50;;;;;;5049620;28;20047;-61
2021/05/25 12:28:05;;;;;;;5.00;2.33;;;9.60;84.80;;;;;;5049500;28;20115;-61
2021/05/25 12:30:32;;;;;;;3.85;2.45;;;10.90;85.70;;;;;;5052620;28;20060;-61
2021/05/25 12:32:58;;;;;;;3.67;2.22;;;10.90;86.50;;;;;;5075896;28;20056;-61
2021/05/25 12:35:26;;;;;;;4.03;2.42;;;11.20;88.00;;;;;;5058857;28;20040;-61
2021/05/25 12:38:12;;;;;;;3.97;2.60;;;11.10;87.00;;;;;;5051152;28;20105;-61
2021/05/25 12:40:40;;;;;;;2.90;2.13;;;12.70;84.70;;;;;;5043904;28;20123;-61
2021/05/25 12:43:25;;;;;;;3.05;2.58;;;11.90;84.80;;;;;;5046316;28;20112;-61
2021/05/25 12:45:53;;;;;;;5.18;2.20;;;11.70;84.40;;;;;;5049769;28;20432;-61
2021/05/25 12:48:31;;;;;;;4.50;2.28;;;11.40;84.30;;;;;;5041148;28;20071;-61
2021/05/25 12:50:57;;;;;;;4.70;2.83;;;10.40;83.90;;;;;;5054866;28;20040;-61
2021/05/25 12:53:23;;;;;;;3.40;2.30;;;10.30;84.00;;;;;;5055510;28;20041;-59
2021/05/25 12:55:52;;;;;;;3.47;2.30;;;11.00;83.40;;;;;;5062718;28;20124;-59
2021/05/25 12:58:38;;;;;;;3.10;2.08;;;11.60;82.80;;;;;;5050487;28;20040;-60
2021/05/25 13:01:20;;;;;;;3.20;2.30;;;11.60;83.10;;;;;;5050497;28;20135;-60
2021/05/25 13:03:46;;;;;;;3.88;2.70;;;11.90;83.20;;;;;;5048838;28;20478;-60
2021/05/25 13:06:35;;;;;;;3.63;2.20;;;11.30;82.00;;;;;;5051726;28;20151;-60
2021/05/25 13:09:19;;;;;;;3.65;2.42;;;11.60;80.80;;;;;;5049303;28;20041;-60
2021/05/25 13:12:01;;;;;;;4.65;2.78;;;11.60;81.80;;;;;;5049625;28;20060;-60
2021/05/25 13:14:28;;;;;;;4.07;2.40;;;12.50;80.60;;;;;;5052511;28;20589;-61